Time;durP1;ratioP1;P1;durP2;ratioP2;P2;SDS_P1;SDS_P2;PMS_P1;PMS_P2;Temp;Humidity;BMP_temperature;BMP_pressure;BME280_temperature;BME280_humidity;BME280_pressure;Samples;Min_cycle;Max_cycle;Signal;HPM_P1;HPM_P2
2023/08/19 00:01:05;;;;;;;18.88;17.17;;;19.80;99.90;;;;;;4973714;28;20042;-76
2023/08/19 00:03:32;;;;;;;21.80;19.77;;;19.90;99.90;;;;;;4972735;28;20061;-77
2023/08/19 00:06:04;;;;;;;20.23;18.10;;;19.90;99.90;;;;;;4972757;28;20082;-76
2023/08/19 00:08:30;;;;;;;22.52;19.92;;;20.10;99.90;;;;;;4965413;28;20444;-76
2023/08/19 00:10:57;;;;;;;20.10;18.00;;;20.10;99.90;;;;;;4968664;28;20128;-77
2023/08/19 00:13:24;;;;;;;19.75;17.83;;;20.30;99.90;;;;;;4968379;28;20061;-77
2023/08/19 00:15:51;;;;;;;19.45;17.50;;;20.40;99.90;;;;;;4968521;28;20089;-77
2023/08/19 00:18:17;;;;;;;20.67;18.77;;;20.40;99.90;;;;;;4965391;28;20097;-77
2023/08/19 00:20:44;;;;;;;19.98;18.17;;;20.40;99.90;;;;;;4971302;28;20100;-77
2023/08/19 00:23:11;;;;;;;21.60;19.40;;;20.50;99.90;;;;;;4970658;28;20581;-77
2023/08/19 00:25:38;;;;;;;21.83;19.70;;;20.50;99.90;;;;;;4968637;28;20117;-77
2023/08/19 00:28:05;;;;;;;20.08;18.17;;;20.60;99.90;;;;;;4968985;28;20091;-77
2023/08/19 00:30:32;;;;;;;23.23;19.35;;;20.60;99.90;;;;;;4969692;28;20056;-76
2023/08/19 00:33:01;;;;;;;22.02;20.02;;;20.70;99.90;;;;;;4970275;28;20057;-76
2023/08/19 00:35:28;;;;;;;21.60;19.52;;;20.70;99.90;;;;;;4968964;28;20050;-77
2023/08/19 00:37:55;;;;;;;22.08;20.10;;;20.70;99.90;;;;;;4968381;28;20437;-77
2023/08/19 00:40:22;;;;;;;23.02;21.00;;;20.60;99.90;;;;;;4969082;28;20043;-77
2023/08/19 00:42:48;;;;;;;24.25;21.95;;;20.60;99.90;;;;;;4965925;28;20413;-77
2023/08/19 00:45:15;;;;;;;23.85;21.63;;;20.50;99.90;;;;;;4955320;28;20047;-77
2023/08/19 00:47:42;;;;;;;22.88;20.77;;;20.60;99.90;;;;;;4971119;28;20580;-76
2023/08/19 00:50:12;;;;;;;24.48;22.27;;;20.50;99.90;;;;;;4971585;28;20042;-77
2023/08/19 00:52:40;;;;;;;23.80;21.73;;;20.40;99.90;;;;;;4965124;28;20054;-76
2023/08/19 00:55:07;;;;;;;25.45;22.83;;;20.40;99.90;;;;;;4968549;28;20073;-76
2023/08/19 00:57:36;;;;;;;26.45;23.77;;;20.30;99.90;;;;;;4963931;28;20109;-77
2023/08/19 01:00:04;;;;;;;25.42;22.95;;;20.20;99.90;;;;;;4970010;28;20479;-76
2023/08/19 01:02:32;;;;;;;26.27;23.88;;;20.20;99.90;;;;;;4971002;28;20057;-76
2023/08/19 01:04:59;;;;;;;25.77;23.52;;;20.10;99.90;;;;;;4972747;28;20092;-77
2023/08/19 01:07:53;;;;;;;26.17;23.52;;;20.10;99.90;;;;;;4969669;28;20054;-77
2023/08/19 01:10:27;;;;;;;27.15;24.30;;;20.00;99.90;;;;;;4964313;28;20069;-76
2023/08/19 01:13:14;;;;;;;25.53;23.00;;;19.90;99.90;;;;;;4967370;28;20105;-76
2023/08/19 01:15:55;;;;;;;26.05;23.25;;;19.80;99.90;;;;;;4983429;28;20035;-77
2023/08/19 01:18:23;;;;;;;24.98;22.48;;;19.80;99.90;;;;;;4964862;28;20145;-77
2023/08/19 01:20:52;;;;;;;25.45;22.85;;;19.70;99.90;;;;;;4970342;28;20042;-77
2023/08/19 01:23:30;;;;;;;26.25;23.70;;;19.70;99.90;;;;;;4972139;28;20047;-77
2023/08/19 01:25:57;;;;;;;26.90;24.23;;;19.70;99.90;;;;;;4970770;28;20054;-77
2023/08/19 01:28:25;;;;;;;25.73;22.77;;;19.70;99.90;;;;;;4965829;28;20074;-76
2023/08/19 01:30:52;;;;;;;25.27;22.50;;;19.60;99.90;;;;;;4985311;28;20042;-76
2023/08/19 01:33:21;;;;;;;24.13;21.80;;;19.70;99.90;;;;;;4971507;28;20066;-77
2023/08/19 01:36:07;;;;;;;25.35;22.73;;;19.60;99.90;;;;;;4970207;28;20066;-77
2023/08/19 01:38:46;;;;;;;25.83;22.58;;;19.70;99.90;;;;;;4965064;28;20054;-76
2023/08/19 01:41:15;;;;;;;28.33;23.55;;;19.70;99.90;;;;;;4964359;28;20049;-77
2023/08/19 01:43:44;;;;;;;27.10;24.20;;;19.60;99.90;;;;;;4967533;28;20069;-76
2023/08/19 01:46:11;;;;;;;26.60;23.90;;;19.60;99.90;;;;;;4968367;28;20038;-77
2023/08/19 01:48:40;;;;;;;25.27;22.70;;;19.60;99.90;;;;;;4983682;28;20050;-77
2023/08/19 01:51:06;;;;;;;27.23;24.23;;;19.60;99.90;;;;;;4968793;28;20039;-76
2023/08/19 01:53:33;;;;;;;28.50;24.77;;;19.50;99.90;;;;;;4985928;28;20057;-77
2023/08/19 01:56:01;;;;;;;29.55;25.00;;;19.50;99.90;;;;;;4970810;28;21082;-76
2023/08/19 01:58:27;;;;;;;34.47;24.90;;;19.40;99.90;;;;;;4969205;28;20054;-77
2023/08/19 02:00:54;;;;;;;30.08;25.83;;;19.50;99.90;;;;;;4949304;28;20046;-77
2023/08/19 02:03:22;;;;;;;28.25;25.25;;;19.50;99.90;;;;;;4970132;28;20137;-77
2023/08/19 02:05:49;;;;;;;29.35;25.60;;;19.40;99.90;;;;;;4969362;28;20069;-77
2023/08/19 02:08:15;;;;;;;30.35;27.15;;;19.50;99.90;;;;;;4951887;28;20039;-77
2023/08/19 02:10:42;;;;;;;33.10;27.15;;;19.30;99.90;;;;;;4964613;28;20050;-76
2023/08/19 02:13:10;;;;;;;32.50;27.23;;;19.40;99.90;;;;;;4965416;28;20044;-76
2023/08/19 02:15:36;;;;;;;30.80;27.27;;;19.40;99.90;;;;;;4979970;28;20046;-77
2023/08/19 02:18:04;;;;;;;30.40;27.10;;;19.40;99.90;;;;;;4967464;28;20579;-76
2023/08/19 02:20:31;;;;;;;28.65;25.58;;;19.40;99.90;;;;;;4984316;28;20629;-77
2023/08/19 02:22:59;;;;;;;28.23;25.30;;;19.30;99.90;;;;;;4971323;28;20051;-77
2023/08/19 02:25:26;;;;;;;29.13;25.85;;;19.30;99.90;;;;;;4966780;28;20049;-77
2023/08/19 02:27:53;;;;;;;29.30;26.27;;;19.30;99.90;;;;;;4966311;28;20065;-76
2023/08/19 02:30:20;;;;;;;33.38;26.92;;;19.40;99.90;;;;;;4968374;28;20058;-77
2023/08/19 02:32:47;;;;;;;31.23;26.77;;;19.40;99.90;;;;;;4966113;28;20042;-76
2023/08/19 02:35:14;;;;;;;33.92;28.00;;;19.50;99.90;;;;;;4971692;28;20585;-76
2023/08/19 02:37:40;;;;;;;31.88;27.23;;;19.50;99.90;;;;;;4964376;28;20046;-77
2023/08/19 02:40:07;;;;;;;32.33;27.88;;;19.60;99.90;;;;;;4987193;28;20054;-76
2023/08/19 02:42:37;;;;;;;29.63;26.48;;;19.60;99.90;;;;;;4950287;28;20038;-76
2023/08/19 02:45:06;;;;;;;29.73;24.80;;;19.60;99.90;;;;;;4971675;28;20157;-76
2023/08/19 02:47:32;;;;;;;31.70;26.40;;;19.50;99.90;;;;;;4968161;28;20062;-76
2023/08/19 02:50:00;;;;;;;31.02;27.25;;;19.50;99.90;;;;;;4969315;28;20501;-76
2023/08/19 02:52:26;;;;;;;30.10;26.83;;;19.40;99.90;;;;;;4965039;28;20054;-76
2023/08/19 02:54:53;;;;;;;33.25;27.08;;;19.40;99.90;;;;;;4985089;28;20042;-76
2023/08/19 02:57:21;;;;;;;33.33;27.17;;;19.40;99.90;;;;;;4968889;28;20089;-77
2023/08/19 02:59:47;;;;;;;28.23;25.35;;;19.50;99.90;;;;;;4968603;28;20479;-77
2023/08/19 03:02:14;;;;;;;29.75;26.15;;;19.50;99.90;;;;;;4967380;28;20042;-76
2023/08/19 03:04:41;;;;;;;35.10;27.13;;;19.40;99.90;;;;;;4963763;28;20042;-76
2023/08/19 03:07:07;;;;;;;30.70;27.30;;;19.50;99.90;;;;;;4971004;28;20057;-77
2023/08/19 03:09:34;;;;;;;35.85;28.00;;;19.50;99.90;;;;;;4968570;28;20046;-77
2023/08/19 03:12:01;;;;;;;33.88;27.65;;;19.40;99.90;;;;;;4962095;28;20718;-76
2023/08/19 03:14:27;;;;;;;29.38;26.02;;;19.40;99.90;;;;;;4962023;28;20108;-77
2023/08/19 03:16:54;;;;;;;32.83;25.58;;;19.50;99.90;;;;;;4952171;28;20529;-77
2023/08/19 03:19:21;;;;;;;32.22;25.90;;;19.40;99.90;;;;;;4964762;28;20114;-77
2023/08/19 03:21:48;;;;;;;28.13;24.23;;;19.50;99.90;;;;;;4964128;28;20406;-76
2023/08/19 03:24:15;;;;;;;34.95;28.33;;;19.40;99.90;;;;;;4969735;28;20050;-77
2023/08/19 03:26:42;;;;;;;35.88;28.17;;;19.40;99.90;;;;;;4962524;28;20081;-77
2023/08/19 03:29:09;;;;;;;31.88;28.42;;;19.50;99.90;;;;;;4974567;28;20042;-77
2023/08/19 03:31:36;;;;;;;39.20;29.27;;;19.40;99.90;;;;;;4955496;28;20041;-77
2023/08/19 03:34:02;;;;;;;40.03;31.15;;;19.30;99.90;;;;;;4957053;28;20058;-77
2023/08/19 03:36:29;;;;;;;37.60;30.55;;;19.20;99.90;;;;;;4966892;28;20050;-77
2023/08/19 03:38:56;;;;;;;36.78;30.60;;;19.20;99.90;;;;;;4968947;28;20073;-76
2023/08/19 03:41:23;;;;;;;37.95;32.22;;;19.30;99.90;;;;;;4971737;28;20045;-77
2023/08/19 03:43:49;;;;;;;45.30;33.75;;;19.10;99.90;;;;;;4955230;28;20744;-77
2023/08/19 03:46:16;;;;;;;42.90;32.67;;;19.10;99.90;;;;;;4974176;28;20038;-77
2023/08/19 03:48:43;;;;;;;43.50;34.08;;;19.00;99.90;;;;;;4970901;28;20078;-76
2023/08/19 03:51:10;;;;;;;40.05;33.45;;;19.00;99.90;;;;;;4971348;28;20596;-77
2023/08/19 03:53:37;;;;;;;40.90;33.95;;;19.00;99.90;;;;;;4973810;28;20043;-77
2023/08/19 03:56:04;;;;;;;41.47;32.42;;;19.00;99.90;;;;;;4970463;28;20042;-76
2023/08/19 03:58:31;;;;;;;39.05;31.90;;;19.00;99.90;;;;;;4971819;28;20062;-76
2023/08/19 04:01:05;;;;;;;41.47;32.72;;;18.90;99.90;;;;;;4983995;28;20129;-77
2023/08/19 04:03:34;;;;;;;42.42;33.78;;;19.00;99.90;;;;;;4970855;28;20049;-77
2023/08/19 04:06:01;;;;;;;44.28;33.33;;;18.90;99.90;;;;;;4972126;28;20050;-77
2023/08/19 04:08:29;;;;;;;47.85;34.75;;;19.00;99.90;;;;;;4972433;28;20073;-77
2023/08/19 04:11:06;;;;;;;44.95;33.50;;;19.00;99.90;;;;;;4968403;28;20125;-77
2023/08/19 04:13:33;;;;;;;48.00;34.10;;;19.00;99.90;;;;;;4982700;28;20486;-76
2023/08/19 04:16:05;;;;;;;51.35;35.78;;;18.90;99.90;;;;;;4972639;28;20129;-77
2023/08/19 04:18:34;;;;;;;48.13;34.35;;;18.90;99.90;;;;;;4955157;28;20057;-77
2023/08/19 04:21:04;;;;;;;47.30;35.10;;;18.80;99.90;;;;;;4982295;28;20551;-77
2023/08/19 04:23:33;;;;;;;44.30;34.08;;;18.80;99.90;;;;;;4987485;28;20201;-77
2023/08/19 04:26:01;;;;;;;45.42;33.38;;;18.80;99.90;;;;;;4971217;28;20057;-76
2023/08/19 04:28:28;;;;;;;45.08;33.33;;;18.90;99.90;;;;;;4971452;28;20058;-77
2023/08/19 04:31:02;;;;;;;47.42;33.00;;;18.90;99.90;;;;;;4953680;28;20074;-77
2023/08/19 04:33:32;;;;;;;41.50;30.40;;;19.00;99.90;;;;;;4969849;28;20125;-76
2023/08/19 04:35:59;;;;;;;44.33;31.92;;;19.00;99.90;;;;;;4968460;28;20054;-77
2023/08/19 04:38:27;;;;;;;35.80;27.40;;;19.00;99.90;;;;;;4967582;28;20524;-77
2023/08/19 04:40:54;;;;;;;37.45;28.98;;;19.10;99.90;;;;;;4968352;28;20042;-77
2023/08/19 04:43:21;;;;;;;34.40;27.77;;;18.90;99.90;;;;;;4955963;28;20066;-77
2023/08/19 04:45:49;;;;;;;33.58;27.50;;;18.90;99.90;;;;;;4969162;28;20049;-77
2023/08/19 04:48:16;;;;;;;31.15;27.10;;;19.00;99.90;;;;;;4974197;28;20134;-77
2023/08/19 04:50:43;;;;;;;26.77;23.55;;;19.00;99.90;;;;;;4969495;28;20066;-77
2023/08/19 04:53:10;;;;;;;25.30;22.60;;;19.10;99.90;;;;;;4984474;28;20050;-77
2023/08/19 04:55:37;;;;;;;27.63;23.15;;;19.10;99.90;;;;;;4969358;28;20114;-77
2023/08/19 04:58:04;;;;;;;25.73;23.20;;;19.10;99.90;;;;;;4972200;28;20042;-77
2023/08/19 05:00:31;;;;;;;26.55;23.63;;;19.20;99.90;;;;;;4971531;28;20066;-77
2023/08/19 05:02:58;;;;;;;29.00;23.20;;;19.10;99.90;;;;;;4986746;28;20061;-77
2023/08/19 05:05:25;;;;;;;29.55;23.27;;;19.20;99.90;;;;;;4972410;28;20052;-77
2023/08/19 05:07:52;;;;;;;23.20;20.80;;;19.30;99.90;;;;;;4950330;28;20051;-77
2023/08/19 05:10:20;;;;;;;22.80;18.50;;;19.40;99.90;;;;;;4971899;28;20046;-77
2023/08/19 05:12:48;;;;;;;21.20;17.92;;;19.50;99.90;;;;;;4948672;28;20047;-76
2023/08/19 05:15:14;;;;;;;19.02;17.00;;;19.60;99.90;;;;;;4970454;28;20678;-77
2023/08/19 05:17:41;;;;;;;19.48;17.58;;;19.80;99.90;;;;;;4951304;28;20073;-77
2023/08/19 05:20:08;;;;;;;20.08;18.08;;;19.90;99.90;;;;;;4971187;28;21508;-77
2023/08/19 05:22:35;;;;;;;20.48;17.02;;;20.00;99.90;;;;;;4982927;28;20050;-77
2023/08/19 05:25:03;;;;;;;21.25;19.35;;;20.10;99.90;;;;;;4972047;28;20051;-77
2023/08/19 05:27:30;;;;;;;20.65;18.80;;;20.30;99.90;;;;;;4968927;28;20042;-77
2023/08/19 05:29:57;;;;;;;20.13;18.27;;;20.40;99.90;;;;;;4951557;28;20126;-77
2023/08/19 05:32:24;;;;;;;21.50;19.70;;;20.60;99.90;;;;;;4973930;28;20523;-77
2023/08/19 05:34:51;;;;;;;21.60;19.55;;;20.70;99.90;;;;;;4966391;28;20046;-77
2023/08/19 05:37:18;;;;;;;21.75;19.95;;;20.80;99.90;;;;;;4957094;28;20116;-77
2023/08/19 05:39:45;;;;;;;22.25;20.15;;;20.90;99.90;;;;;;4971209;28;20046;-77
2023/08/19 05:42:12;;;;;;;24.05;21.85;;;21.10;99.90;;;;;;4965374;28;20645;-77
2023/08/19 05:44:38;;;;;;;24.25;22.10;;;21.20;99.90;;;;;;4969763;28;20061;-76
2023/08/19 05:47:05;;;;;;;22.45;20.50;;;21.30;99.90;;;;;;4962554;28;20054;-77
2023/08/19 05:49:32;;;;;;;23.42;21.35;;;21.30;99.90;;;;;;4963008;28;20675;-76
2023/08/19 05:51:59;;;;;;;22.95;21.02;;;21.40;99.90;;;;;;4965942;28;20043;-76
2023/08/19 05:54:25;;;;;;;22.40;20.55;;;21.50;99.90;;;;;;4957752;28;20050;-77
2023/08/19 05:56:52;;;;;;;23.67;21.70;;;21.50;99.90;;;;;;4966418;28;20038;-76
2023/08/19 05:59:19;;;;;;;23.45;21.55;;;21.50;99.90;;;;;;4968052;28;20050;-77
2023/08/19 06:01:45;;;;;;;24.27;21.98;;;21.40;99.90;;;;;;4968592;28;20059;-76
2023/08/19 06:04:13;;;;;;;24.48;22.55;;;21.50;99.90;;;;;;4972219;28;20046;-77
2023/08/19 06:06:39;;;;;;;23.30;21.50;;;21.40;99.90;;;;;;4963352;28;20145;-77
2023/08/19 06:09:06;;;;;;;24.98;22.98;;;21.40;99.90;;;;;;4967524;28;20493;-77
2023/08/19 06:11:32;;;;;;;24.05;22.15;;;21.30;99.90;;;;;;4964406;28;20121;-77
2023/08/19 06:13:59;;;;;;;24.23;22.23;;;21.30;99.90;;;;;;4967975;28;20042;-77
2023/08/19 06:16:26;;;;;;;24.40;22.50;;;21.20;99.90;;;;;;4986949;28;20070;-77
2023/08/19 06:18:53;;;;;;;24.25;22.30;;;21.20;99.90;;;;;;4963280;28;20058;-77
2023/08/19 06:21:19;;;;;;;24.73;22.63;;;21.20;99.90;;;;;;4973524;28;20271;-77
2023/08/19 06:23:46;;;;;;;24.58;22.63;;;21.30;99.90;;;;;;4968208;28;20050;-77
2023/08/19 06:26:13;;;;;;;23.60;21.65;;;21.20;99.90;;;;;;4968233;28;20106;-78
2023/08/19 06:28:39;;;;;;;23.95;22.15;;;21.20;99.90;;;;;;4953438;28;20046;-77
2023/08/19 06:31:06;;;;;;;23.67;21.80;;;21.20;99.90;;;;;;4970170;28;20074;-77
2023/08/19 06:33:33;;;;;;;24.65;22.50;;;21.20;99.90;;;;;;4965145;28;20050;-77
2023/08/19 06:36:01;;;;;;;23.17;21.15;;;21.40;99.90;;;;;;4969964;28;20093;-77
2023/08/19 06:38:29;;;;;;;24.75;22.85;;;21.40;99.90;;;;;;4965431;28;20077;-77
2023/08/19 06:40:59;;;;;;;23.95;22.35;;;21.70;99.90;;;;;;4948348;28;20054;-77
2023/08/19 06:43:27;;;;;;;26.60;24.33;;;21.90;99.90;;;;;;4963761;28;20054;-77
2023/08/19 06:45:57;;;;;;;26.55;24.35;;;22.30;99.90;;;;;;4965651;28;20529;-77
2023/08/19 06:48:24;;;;;;;26.17;24.17;;;22.50;99.90;;;;;;4971079;28;20054;-77
2023/08/19 06:50:52;;;;;;;25.58;23.88;;;22.70;99.90;;;;;;4964950;28;20049;-77
2023/08/19 06:53:20;;;;;;;26.77;24.80;;;23.00;99.90;;;;;;4960881;28;20053;-77
2023/08/19 06:56:12;;;;;;;26.77;24.83;;;23.30;99.90;;;;;;4978183;28;20126;-77
2023/08/19 06:58:48;;;;;;;26.45;24.58;;;23.50;99.90;;;;;;4983896;28;20055;-77
2023/08/19 07:01:22;;;;;;;26.85;25.05;;;23.60;99.90;;;;;;4969634;28;20057;-76
2023/08/19 07:03:52;;;;;;;27.73;25.73;;;23.70;99.90;;;;;;4977016;28;20062;-77
2023/08/19 07:06:21;;;;;;;28.33;26.25;;;23.80;99.90;;;;;;4962187;28;20317;-76
2023/08/19 07:08:50;;;;;;;29.10;27.15;;;23.70;99.90;;;;;;4967255;28;20038;-76
2023/08/19 07:11:17;;;;;;;28.02;26.10;;;23.70;99.90;;;;;;4966068;28;20038;-77
2023/08/19 07:13:44;;;;;;;27.10;25.30;;;23.60;99.90;;;;;;4970546;28;20045;-76
2023/08/19 07:16:12;;;;;;;28.08;26.17;;;23.30;99.90;;;;;;4971237;28;20096;-76
2023/08/19 07:18:47;;;;;;;28.65;26.65;;;23.30;99.90;;;;;;4967712;28;20054;-77
2023/08/19 07:21:15;;;;;;;26.73;24.90;;;23.30;99.90;;;;;;4964317;28;20046;-77
2023/08/19 07:23:45;;;;;;;26.73;24.92;;;23.30;99.90;;;;;;4961921;28;20051;-76
2023/08/19 07:26:12;;;;;;;26.77;24.92;;;23.40;99.90;;;;;;4963294;28;20046;-77
2023/08/19 07:28:39;;;;;;;26.17;24.30;;;23.70;99.90;;;;;;4965161;28;20061;-77
2023/08/19 07:31:10;;;;;;;26.63;24.90;;;24.00;99.90;;;;;;4964898;28;20074;-77
2023/08/19 07:33:37;;;;;;;26.90;25.10;;;24.20;99.90;;;;;;4953173;28;20125;-76
2023/08/19 07:36:04;;;;;;;26.23;24.52;;;24.30;99.90;;;;;;4965922;28;20042;-77
2023/08/19 07:38:31;;;;;;;26.05;24.45;;;24.40;99.90;;;;;;4957632;28;20071;-77
2023/08/19 07:40:57;;;;;;;27.08;25.38;;;24.60;99.90;;;;;;4960896;28;20659;-76
2023/08/19 07:43:24;;;;;;;26.25;24.27;;;24.90;99.90;;;;;;4970747;28;20046;-77
2023/08/19 07:45:51;;;;;;;25.25;23.48;;;25.10;99.90;;;;;;4964146;28;20039;-76
2023/08/19 07:48:17;;;;;;;26.25;24.45;;;25.20;99.90;;;;;;4951891;28;20058;-76
2023/08/19 07:50:44;;;;;;;27.08;25.13;;;25.20;99.90;;;;;;4966053;28;20042;-76
2023/08/19 07:53:12;;;;;;;30.02;28.20;;;25.10;99.90;;;;;;4964823;28;20054;-76
2023/08/19 07:55:39;;;;;;;28.52;26.88;;;25.20;99.90;;;;;;4967643;28;20097;-77
2023/08/19 07:58:07;;;;;;;30.00;28.05;;;25.20;99.90;;;;;;4967060;28;20046;-77
2023/08/19 08:00:33;;;;;;;29.15;27.30;;;25.10;99.90;;;;;;4961497;28;20054;-76
2023/08/19 08:03:00;;;;;;;28.60;26.70;;;25.00;99.90;;;;;;4954846;28;21231;-77
2023/08/19 08:05:27;;;;;;;28.83;26.65;;;25.00;99.90;;;;;;4961709;28;20050;-76
2023/08/19 08:07:54;;;;;;;26.92;25.42;;;24.90;99.90;;;;;;4952730;28;20054;-76
2023/08/19 08:10:21;;;;;;;28.58;26.88;;;24.90;99.90;;;;;;4975781;28;20129;-76
2023/08/19 08:12:48;;;;;;;29.38;27.30;;;24.90;99.90;;;;;;4955528;28;20043;-76
2023/08/19 08:15:15;;;;;;;29.35;26.83;;;24.90;99.90;;;;;;4960386;28;20045;-76
2023/08/19 08:17:42;;;;;;;29.20;27.25;;;24.80;99.90;;;;;;4962846;28;20047;-77
2023/08/19 08:20:09;;;;;;;30.98;28.90;;;24.90;99.90;;;;;;4961924;28;20556;-76
2023/08/19 08:22:35;;;;;;;28.52;26.63;;;25.00;99.90;;;;;;4985812;28;20552;-76
2023/08/19 08:25:04;;;;;;;29.20;27.50;;;25.20;99.90;;;;;;4959283;28;20046;-76
2023/08/19 08:27:31;;;;;;;31.08;28.77;;;25.20;99.90;;;;;;4962625;28;20053;-76
2023/08/19 08:29:59;;;;;;;27.80;26.13;;;25.30;99.90;;;;;;4963826;28;20814;-76
2023/08/19 08:32:26;;;;;;;28.25;26.35;;;25.40;99.90;;;;;;4968634;28;20042;-76
2023/08/19 08:34:53;;;;;;;28.38;26.40;;;25.60;99.90;;;;;;4969011;28;20073;-76
2023/08/19 08:37:20;;;;;;;28.13;26.33;;;25.70;99.90;;;;;;4966357;28;20054;-77
2023/08/19 08:39:46;;;;;;;29.85;27.85;;;25.90;99.90;;;;;;4970894;28;20054;-76
2023/08/19 08:42:13;;;;;;;27.98;26.10;;;26.00;99.90;;;;;;4978711;28;20096;-76
2023/08/19 08:44:41;;;;;;;27.35;25.60;;;26.20;99.90;;;;;;4989319;28;20063;-75
2023/08/19 08:47:09;;;;;;;27.60;25.88;;;26.40;99.90;;;;;;4979961;28;20054;-76
2023/08/19 08:49:36;;;;;;;26.50;24.80;;;26.20;99.90;;;;;;4980982;28;20046;-77
2023/08/19 08:52:04;;;;;;;26.42;24.83;;;26.20;99.90;;;;;;4972183;28;20061;-76
2023/08/19 08:54:33;;;;;;;25.33;23.60;;;26.50;99.90;;;;;;4983775;28;20258;-77
2023/08/19 08:57:02;;;;;;;27.58;25.92;;;26.60;99.90;;;;;;4979210;28;20077;-77
2023/08/19 08:59:29;;;;;;;30.35;28.05;;;26.30;99.90;;;;;;4978589;28;20091;-76
2023/08/19 09:01:58;;;;;;;30.30;28.60;;;26.50;99.90;;;;;;4979186;28;20058;-77
2023/08/19 09:04:28;;;;;;;28.83;27.15;;;26.80;99.90;;;;;;4981032;28;20126;-77
2023/08/19 09:07:06;;;;;;;28.77;26.95;;;27.00;99.90;;;;;;4967582;28;20051;-75
2023/08/19 09:09:36;;;;;;;27.50;25.65;;;27.10;99.90;;;;;;4985038;28;20587;-76
2023/08/19 09:12:06;;;;;;;27.30;25.73;;;27.10;99.90;;;;;;4973412;28;20843;-76
2023/08/19 09:14:40;;;;;;;28.42;26.83;;;27.10;99.90;;;;;;4978986;28;20054;-75
2023/08/19 09:17:07;;;;;;;29.08;27.08;;;26.90;99.90;;;;;;4952724;28;20070;-77
2023/08/19 09:19:35;;;;;;;30.75;28.75;;;26.90;99.90;;;;;;4970239;28;20050;-77
2023/08/19 09:22:22;;;;;;;28.92;27.17;;;27.10;99.90;;;;;;4970342;28;20058;-77
2023/08/19 09:24:49;;;;;;;30.55;28.65;;;27.10;99.90;;;;;;4976365;28;20109;-76
2023/08/19 09:27:27;;;;;;;29.70;28.00;;;27.30;99.90;;;;;;4977332;28;20046;-77
2023/08/19 09:29:54;;;;;;;31.73;29.83;;;27.30;99.90;;;;;;4974629;28;20050;-76
2023/08/19 09:32:33;;;;;;;30.92;29.13;;;27.30;99.90;;;;;;4969985;28;20133;-76
2023/08/19 09:35:02;;;;;;;32.58;30.70;;;27.60;99.90;;;;;;4973119;28;20048;-76
2023/08/19 09:37:31;;;;;;;30.80;28.98;;;27.80;99.90;;;;;;4966640;28;20050;-75
2023/08/19 09:39:58;;;;;;;30.92;28.48;;;27.80;99.90;;;;;;4967072;28;20610;-75
2023/08/19 09:42:27;;;;;;;29.75;27.75;;;27.70;99.90;;;;;;4965600;28;20054;-76
2023/08/19 09:44:54;;;;;;;30.75;28.85;;;27.40;99.90;;;;;;4948600;28;20082;-75
2023/08/19 09:47:22;;;;;;;30.95;29.13;;;27.30;99.90;;;;;;4971209;28;20042;-77
2023/08/19 09:49:52;;;;;;;30.00;28.05;;;27.30;99.90;;;;;;4969180;28;20050;-75
2023/08/19 09:52:19;;;;;;;32.45;30.38;;;27.40;99.90;;;;;;4984691;28;20041;-77
2023/08/19 09:54:52;;;;;;;29.65;27.85;;;27.40;99.90;;;;;;4967534;28;20105;-77
2023/08/19 09:57:35;;;;;;;28.02;26.15;;;27.50;99.90;;;;;;4969202;28;20046;-77
2023/08/19 10:00:06;;;;;;;28.50;26.92;;;27.70;99.90;;;;;;4961939;28;20058;-75
2023/08/19 10:02:34;;;;;;;30.10;28.10;;;27.70;99.90;;;;;;4973577;28;20089;-77
2023/08/19 10:05:03;;;;;;;30.55;28.52;;;27.70;99.90;;;;;;4964915;28;20046;-77
2023/08/19 10:07:31;;;;;;;30.88;28.85;;;27.80;99.90;;;;;;4963604;28;20539;-77
2023/08/19 10:10:03;;;;;;;30.70;28.58;;;28.00;99.90;;;;;;4968758;28;20050;-77
2023/08/19 10:12:34;;;;;;;28.38;26.77;;;28.20;99.90;;;;;;4963552;28;20070;-75
2023/08/19 10:15:03;;;;;;;29.90;28.08;;;28.10;99.90;;;;;;4968688;28;20049;-76
2023/08/19 10:17:32;;;;;;;33.90;31.58;;;28.00;99.90;;;;;;4969479;28;20054;-75
2023/08/19 10:20:10;;;;;;;32.88;31.08;;;28.20;99.90;;;;;;4967470;28;20046;-76
2023/08/19 10:22:41;;;;;;;32.88;31.00;;;28.50;99.90;;;;;;4974560;28;20053;-77
2023/08/19 10:25:11;;;;;;;33.75;31.77;;;28.80;99.90;;;;;;4963288;28;20524;-75
2023/08/19 10:27:37;;;;;;;33.50;31.50;;;29.30;99.90;;;;;;4980887;28;20054;-76
2023/08/19 10:30:22;;;;;;;34.35;32.22;;;29.40;99.90;;;;;;4966408;28;20050;-77
2023/08/19 10:32:49;;;;;;;35.30;33.20;;;29.70;99.90;;;;;;4966806;28;20053;-77
2023/08/19 10:35:17;;;;;;;36.03;33.55;;;30.00;99.90;;;;;;4966381;28;20528;-75
2023/08/19 10:37:49;;;;;;;36.70;34.70;;;30.40;99.90;;;;;;4965918;28;20163;-75
2023/08/19 10:40:24;;;;;;;34.50;32.35;;;30.80;99.90;;;;;;4965303;28;20156;-75
2023/08/19 10:42:58;;;;;;;34.95;32.55;;;30.80;99.90;;;;;;4961601;28;20050;-74
2023/08/19 10:45:32;;;;;;;32.55;30.52;;;31.10;99.90;;;;;;4966940;28;20136;-75
2023/08/19 10:47:59;;;;;;;34.38;32.45;;;31.00;99.90;;;;;;4968139;28;20050;-76
2023/08/19 10:50:26;;;;;;;32.95;31.15;;;30.60;99.90;;;;;;4951658;28;20050;-75
2023/08/19 10:53:01;;;;;;;32.80;30.83;;;30.50;99.90;;;;;;4963735;28;20046;-75
2023/08/19 10:55:28;;;;;;;34.75;32.42;;;30.50;99.90;;;;;;4968275;28;20065;-77
2023/08/19 10:57:56;;;;;;;32.50;30.60;;;30.50;99.90;;;;;;4968426;28;20050;-77
2023/08/19 11:00:31;;;;;;;33.78;31.77;;;30.30;99.90;;;;;;4959756;28;20050;-77
2023/08/19 11:02:58;;;;;;;34.05;31.73;;;30.00;99.90;;;;;;4964423;28;20047;-77
2023/08/19 11:05:27;;;;;;;32.85;30.65;;;30.00;99.90;;;;;;4968529;28;20070;-76
2023/08/19 11:07:54;;;;;;;32.28;30.20;;;30.10;99.90;;;;;;4975527;28;20531;-77
2023/08/19 11:10:22;;;;;;;30.95;29.05;;;30.30;99.90;;;;;;4964249;28;20097;-77
2023/08/19 11:12:49;;;;;;;29.85;28.02;;;30.30;99.90;;;;;;4965464;28;20065;-77
2023/08/19 11:15:26;;;;;;;29.65;27.67;;;30.30;99.90;;;;;;4967459;28;21193;-77
2023/08/19 11:17:53;;;;;;;31.38;29.48;;;30.30;99.90;;;;;;4968245;28;20042;-77
2023/08/19 11:20:20;;;;;;;29.10;27.13;;;30.30;99.90;;;;;;4963628;28;20473;-77
2023/08/19 11:22:48;;;;;;;30.02;28.23;;;30.20;99.90;;;;;;4984311;28;20489;-77
2023/08/19 11:25:16;;;;;;;30.88;28.90;;;30.00;99.90;;;;;;4966184;28;20046;-76
2023/08/19 11:27:43;;;;;;;30.35;28.35;;;29.90;99.90;;;;;;4968247;28;20105;-77
2023/08/19 11:30:11;;;;;;;31.30;29.13;;;29.80;99.90;;;;;;4961568;28;20066;-77
2023/08/19 11:32:38;;;;;;;31.05;28.85;;;29.70;99.90;;;;;;4981801;28;20045;-77
2023/08/19 11:35:05;;;;;;;33.95;31.92;;;29.60;99.90;;;;;;4967083;28;20100;-77
2023/08/19 11:37:32;;;;;;;33.22;31.15;;;29.50;99.90;;;;;;4968655;28;20049;-77
2023/08/19 11:39:59;;;;;;;32.08;30.25;;;29.60;99.90;;;;;;4964956;28;20038;-76
2023/08/19 11:42:34;;;;;;;32.47;30.25;;;29.60;99.90;;;;;;4959262;28;20050;-77
2023/08/19 11:45:02;;;;;;;33.63;31.75;;;29.50;99.90;;;;;;4967029;28;20077;-77
2023/08/19 11:47:33;;;;;;;32.15;30.17;;;29.50;99.90;;;;;;4969441;28;20094;-77
2023/08/19 11:50:04;;;;;;;33.15;31.00;;;29.10;99.90;;;;;;4963382;28;20061;-77
2023/08/19 11:52:32;;;;;;;32.35;30.17;;;29.10;99.90;;;;;;4972562;28;20042;-77
2023/08/19 11:55:06;;;;;;;32.20;30.30;;;28.90;99.90;;;;;;4967922;28;20128;-77
2023/08/19 11:57:36;;;;;;;32.45;30.55;;;28.90;99.90;;;;;;4972905;28;20054;-77
2023/08/19 12:00:04;;;;;;;31.88;30.17;;;28.80;99.90;;;;;;4961398;28;20054;-76
2023/08/19 12:02:38;;;;;;;34.08;31.83;;;29.00;99.90;;;;;;4964218;28;20046;-77
2023/08/19 12:05:06;;;;;;;31.67;29.70;;;29.00;99.90;;;;;;4969830;28;20046;-77
2023/08/19 12:07:34;;;;;;;31.70;29.58;;;29.00;99.90;;;;;;4963469;28;22089;-77
2023/08/19 12:10:03;;;;;;;31.48;29.10;;;28.80;99.90;;;;;;4951074;28;20051;-77
2023/08/19 12:12:30;;;;;;;30.85;29.05;;;28.80;99.90;;;;;;4965841;28;20053;-77
2023/08/19 12:14:58;;;;;;;31.02;29.02;;;28.60;99.90;;;;;;4964408;28;20046;-76
2023/08/19 12:17:25;;;;;;;31.13;29.33;;;28.50;99.90;;;;;;4955553;28;20516;-76
2023/08/19 12:19:51;;;;;;;30.45;28.55;;;28.50;99.90;;;;;;4955290;28;20129;-76
2023/08/19 12:22:18;;;;;;;32.13;30.13;;;28.40;99.90;;;;;;4970974;28;20050;-76
2023/08/19 12:24:45;;;;;;;30.77;28.90;;;28.30;99.90;;;;;;4969632;28;20666;-76
2023/08/19 12:27:11;;;;;;;29.42;27.77;;;28.20;99.90;;;;;;4969273;28;20117;-76
2023/08/19 12:29:39;;;;;;;28.92;27.13;;;28.20;99.90;;;;;;4956706;28;20054;-77
2023/08/19 12:32:06;;;;;;;29.15;27.13;;;28.30;99.90;;;;;;4972771;28;20034;-77
2023/08/19 12:34:33;;;;;;;29.92;27.92;;;28.30;99.90;;;;;;4971425;28;20045;-76